Time;durP1;ratioP1;P1;durP2;ratioP2;P2;SDS_P1;SDS_P2;PMS_P1;PMS_P2;Temp;Humidity;BMP_temperature;BMP_pressure;BME280_temperature;BME280_humidity;BME280_pressure;Samples;Min_cycle;Max_cycle;Signal;HPM_P1;HPM_P2
2021/08/14 00:00:50;;;;;;;10.57;5.53;;;;;;;20.39;nan;102021.53;6267322;22;20084;-51
2021/08/14 00:03:16;;;;;;;10.98;5.88;;;;;;;20.33;nan;102019.97;6268176;22;20073;-50
2021/08/14 00:05:41;;;;;;;12.00;5.47;;;;;;;20.28;nan;102019.97;6267378;22;20340;-49
2021/08/14 00:08:07;;;;;;;10.02;5.20;;;;;;;20.19;nan;102022.50;6267923;22;20000;-49
2021/08/14 00:10:32;;;;;;;8.60;5.57;;;;;;;20.20;nan;102024.13;6267860;22;20000;-49
2021/08/14 00:12:58;;;;;;;11.50;4.95;;;;;;;20.12;nan;102028.25;6241220;22;20010;-49
2021/08/14 00:15:23;;;;;;;9.20;5.25;;;;;;;20.11;nan;102032.06;6267126;22;20011;-49
2021/08/14 00:17:49;;;;;;;9.05;4.65;;;;;;;20.08;nan;102031.78;6268622;22;20003;-49
2021/08/14 00:20:14;;;;;;;8.52;4.53;;;;;;;20.04;nan;102041.63;6267240;22;20022;-52
2021/08/14 00:22:40;;;;;;;8.25;5.60;;;;;;;20.02;nan;102038.38;6267798;22;20007;-52
2021/08/14 00:25:06;;;;;;;6.97;5.45;;;;;;;20.01;nan;102040.28;6239994;22;20007;-51
2021/08/14 00:27:32;;;;;;;8.30;5.18;;;;;;;19.97;nan;102041.13;6267252;22;20030;-49
2021/08/14 00:29:57;;;;;;;8.65;4.88;;;;;;;19.97;nan;102035.69;6267713;22;20004;-49
2021/08/14 00:32:23;;;;;;;9.40;5.22;;;;;;;19.92;nan;102047.38;6268009;22;20004;-52
2021/08/14 00:34:48;;;;;;;9.85;5.05;;;;;;;19.89;nan;102050.66;6268425;22;20000;-49
2021/08/14 00:37:14;;;;;;;8.48;4.93;;;;;;;19.77;nan;102050.19;6267248;22;20010;-49
2021/08/14 00:39:40;;;;;;;8.45;4.93;;;;;;;19.68;nan;102057.28;6266862;22;20453;-49
2021/08/14 00:42:05;;;;;;;8.18;4.43;;;;;;;19.68;nan;102057.28;6267739;22;20041;-52
2021/08/14 00:44:33;;;;;;;7.78;4.07;;;;;;;19.61;nan;102054.88;6267405;22;19999;-50
2021/08/14 00:46:59;;;;;;;11.10;4.00;;;;;;;19.49;nan;102057.03;6240457;22;20004;-50
2021/08/14 00:49:25;;;;;;;5.78;3.10;;;;;;;19.35;nan;102056.78;6267303;22;20003;-50
2021/08/14 00:51:50;;;;;;;8.57;3.03;;;;;;;19.27;nan;102065.50;6267757;22;20004;-50
2021/08/14 00:54:16;;;;;;;7.15;2.45;;;;;;;19.20;nan;102067.69;6267460;22;20542;-50
2021/08/14 00:56:42;;;;;;;2.95;1.90;;;;;;;19.14;nan;102071.50;6267480;22;20004;-48
2021/08/14 00:59:08;;;;;;;8.90;2.80;;;;;;;19.10;nan;102054.94;6267528;22;20501;-51
2021/08/14 01:01:34;;;;;;;4.55;2.17;;;;;;;19.10;nan;102065.81;6267714;22;19999;-52
2021/08/14 01:04:00;;;;;;;6.90;2.20;;;;;;;19.04;nan;102061.47;6267990;22;20247;-52
2021/08/14 01:06:26;;;;;;;5.43;2.80;;;;;;;19.00;nan;102063.91;6267325;22;20432;-50
2021/08/14 01:08:53;;;;;;;9.25;2.78;;;;;;;18.91;nan;102068.25;6267605;22;20004;-52
2021/08/14 01:11:19;;;;;;;6.13;2.22;;;;;;;18.83;nan;102071.50;6267036;22;19999;-52
2021/08/14 01:13:46;;;;;;;5.18;1.95;;;;;;;18.80;nan;102063.91;6268296;22;20004;-50
2021/08/14 01:16:12;;;;;;;8.98;2.40;;;;;;;18.76;nan;102068.25;6268726;22;20335;-49
2021/08/14 01:18:47;;;;;;;4.95;2.05;;;;;;;18.61;nan;102065.50;6268727;22;20011;-49
2021/08/14 01:21:23;;;;;;;7.10;2.40;;;;;;;18.65;nan;102066.59;6269142;22;19999;-49
2021/08/14 01:23:50;;;;;;;7.78;2.63;;;;;;;18.73;nan;102065.28;6269582;22;19999;-49
2021/08/14 01:26:17;;;;;;;5.53;2.28;;;;;;;18.68;nan;102066.91;6242522;22;20372;-50
2021/08/14 01:28:43;;;;;;;7.38;3.10;;;;;;;18.66;nan;102062.81;6269245;22;20122;-52
2021/08/14 01:31:10;;;;;;;6.40;2.17;;;;;;;18.64;nan;102059.53;6269838;22;20174;-52
2021/08/14 01:33:39;;;;;;;7.57;2.72;;;;;;;18.62;nan;102058.97;6242567;22;20007;-51
2021/08/14 01:36:09;;;;;;;8.32;2.65;;;;;;;18.59;nan;102067.66;6269446;22;20000;-50
2021/08/14 01:38:53;;;;;;;10.35;2.38;;;;;;;18.38;nan;102067.63;6240695;22;20496;-52
2021/08/14 01:41:19;;;;;;;7.90;2.65;;;;;;;18.39;nan;102069.25;6269076;22;20601;-51
2021/08/14 01:44:06;;;;;;;14.93;2.75;;;;;;;18.30;nan;102065.44;6269950;22;20078;-49
2021/08/14 01:46:41;;;;;;;7.03;2.72;;;;;;;18.15;nan;102068.13;6269068;22;20004;-49
2021/08/14 01:49:07;;;;;;;12.38;2.70;;;;;;;18.19;nan;102071.94;6268792;22;20011;-49
2021/08/14 01:51:33;;;;;;;6.72;2.78;;;;;;;18.17;nan;102068.66;6269091;22;20386;-50
2021/08/14 01:54:00;;;;;;;9.60;2.55;;;;;;;18.10;nan;102079.75;6268385;22;20348;-50
2021/08/14 01:56:27;;;;;;;6.97;2.60;;;;;;;18.01;nan;102078.66;6267487;22;20007;-49
2021/08/14 01:58:53;;;;;;;7.80;2.72;;;;;;;18.00;nan;102078.91;6269149;22;20486;-50
2021/08/14 02:01:19;;;;;;;6.82;2.70;;;;;;;17.85;nan;102076.13;6268813;22;20065;-49
2021/08/14 02:03:49;;;;;;;11.20;3.97;;;;;;;17.74;nan;102076.06;6268550;22;20003;-49
2021/08/14 02:06:19;;;;;;;16.65;3.97;;;;;;;17.75;nan;102080.41;6268784;22;20468;-49
2021/08/14 02:08:45;;;;;;;8.30;3.17;;;;;;;17.76;nan;102079.34;6268635;22;19999;-49
2021/08/14 02:11:11;;;;;;;7.38;2.92;;;;;;;17.73;nan;102084.47;6268675;22;20011;-49
2021/08/14 02:13:37;;;;;;;7.78;2.97;;;;;;;17.67;nan;102080.91;6268246;22;20321;-49
2021/08/14 02:16:03;;;;;;;10.30;3.60;;;;;;;17.61;nan;102079.25;6268596;22;19999;-51
2021/08/14 02:18:28;;;;;;;10.00;2.60;;;;;;;17.52;nan;102095.16;6267895;22;20557;-52
2021/08/14 02:20:54;;;;;;;6.18;2.10;;;;;;;17.46;nan;102088.09;6269192;22;20007;-50
2021/08/14 02:23:19;;;;;;;6.65;2.72;;;;;;;17.39;nan;102083.97;6268561;22;20006;-50
2021/08/14 02:25:45;;;;;;;10.02;2.97;;;;;;;17.33;nan;102090.44;6269298;22;20042;-50
2021/08/14 02:28:10;;;;;;;7.90;2.67;;;;;;;17.23;nan;102088.47;6268138;22;20078;-49
2021/08/14 02:30:36;;;;;;;5.65;2.60;;;;;;;17.16;nan;102085.97;6268039;22;20455;-49
2021/08/14 02:33:02;;;;;;;7.10;2.70;;;;;;;17.07;nan;102084.84;6267883;22;20004;-50
2021/08/14 02:35:27;;;;;;;8.38;2.60;;;;;;;16.98;nan;102089.09;6241222;22;19999;-49
2021/08/14 02:37:53;;;;;;;6.75;2.80;;;;;;;16.94;nan;102090.69;6268054;22;20459;-49
2021/08/14 02:40:18;;;;;;;6.18;2.75;;;;;;;16.85;nan;102097.63;6268009;22;20037;-50
2021/08/14 02:42:44;;;;;;;10.45;2.78;;;;;;;16.74;nan;102093.22;6267793;22;20007;-50
2021/08/14 02:45:11;;;;;;;10.07;2.95;;;;;;;16.67;nan;102089.88;6267840;22;20027;-51
2021/08/14 02:47:38;;;;;;;9.23;2.22;;;;;;;16.62;nan;102090.63;6267476;22;20061;-49
2021/08/14 02:50:04;;;;;;;10.15;3.00;;;;;;;16.56;nan;102083.53;6241316;22;20003;-52
2021/08/14 02:52:30;;;;;;;10.18;2.88;;;;;;;16.48;nan;102090.22;6267596;22;20503;-50
2021/08/14 02:54:55;;;;;;;6.82;2.58;;;;;;;16.41;nan;102081.50;6268805;22;20003;-50
2021/08/14 02:57:21;;;;;;;9.65;2.80;;;;;;;16.32;nan;102085.72;6267892;22;20467;-51
2021/08/14 02:59:46;;;;;;;7.68;2.65;;;;;;;16.25;nan;102074.28;6241370;22;20360;-48
2021/08/14 03:02:12;;;;;;;11.23;3.28;;;;;;;16.17;nan;102069.34;6266488;22;20494;-51
2021/08/14 03:04:37;;;;;;;6.22;2.95;;;;;;;16.10;nan;102079.50;6267270;22;20059;-49
2021/08/14 03:07:03;;;;;;;9.13;3.42;;;;;;;15.83;nan;102087.56;6268333;22;20000;-52
2021/08/14 03:09:28;;;;;;;9.90;2.88;;;;;;;15.87;nan;102073.28;6267644;22;20000;-50
2021/08/14 03:11:54;;;;;;;5.90;2.58;;;;;;;15.87;nan;102081.41;6268283;22;20031;-51
2021/08/14 03:14:19;;;;;;;16.38;3.75;;;;;;;15.86;nan;102081.66;6268114;22;20015;-50
2021/08/14 03:16:45;;;;;;;13.98;2.83;;;;;;;15.83;nan;102082.16;6268300;22;20247;-51
2021/08/14 03:19:10;;;;;;;8.95;2.80;;;;;;;15.78;nan;102085.59;6267282;22;20544;-49
2021/08/14 03:21:36;;;;;;;9.95;2.88;;;;;;;15.74;nan;102087.16;6267849;22;20306;-49
2021/08/14 03:24:01;;;;;;;6.68;2.70;;;;;;;15.73;nan;102093.63;6267955;22;20497;-51
2021/08/14 03:26:27;;;;;;;6.63;2.80;;;;;;;15.67;nan;102081.97;6267930;22;20010;-49
2021/08/14 03:28:54;;;;;;;6.53;3.00;;;;;;;15.61;nan;102085.63;6267889;22;19999;-49
2021/08/14 03:31:21;;;;;;;10.90;3.13;;;;;;;15.56;nan;102093.66;6267477;22;20527;-52
2021/08/14 03:33:47;;;;;;;7.43;3.38;;;;;;;15.50;nan;102104.63;6268059;22;20015;-52
2021/08/14 03:36:13;;;;;;;10.65;3.80;;;;;;;15.45;nan;102099.16;6267316;22;19995;-50
2021/08/14 03:38:38;;;;;;;10.88;3.45;;;;;;;15.42;nan;102103.97;6267282;22;20015;-51
2021/08/14 03:41:06;;;;;;;9.98;3.28;;;;;;;15.36;nan;102099.56;6266445;22;20264;-49
2021/08/14 03:43:32;;;;;;;7.00;2.72;;;;;;;15.32;nan;102106.53;6267810;22;20074;-51
2021/08/14 03:45:57;;;;;;;9.70;3.40;;;;;;;15.30;nan;102099.75;6268092;22;20073;-52
2021/08/14 03:48:23;;;;;;;8.55;2.60;;;;;;;15.30;nan;102111.38;6267364;22;20084;-50
2021/08/14 03:50:48;;;;;;;14.82;3.78;;;;;;;15.28;nan;102110.78;6267423;22;20025;-49
2021/08/14 03:53:15;;;;;;;10.52;3.30;;;;;;;15.25;nan;102113.97;6268075;22;20227;-51
2021/08/14 03:55:40;;;;;;;8.35;3.08;;;;;;;15.25;nan;102113.16;6267259;22;20007;-49
2021/08/14 03:58:05;;;;;;;12.20;3.22;;;;;;;15.22;nan;102111.75;6267577;22;20008;-51
2021/08/14 04:00:31;;;;;;;11.52;3.22;;;;;;;15.17;nan;102110.88;6267512;22;20003;-50
2021/08/14 04:02:56;;;;;;;7.40;3.45;;;;;;;15.15;nan;102113.00;6267706;22;20008;-51
2021/08/14 04:05:22;;;;;;;10.50;3.40;;;;;;;15.15;nan;102113.00;6267675;22;20029;-49
2021/08/14 04:07:47;;;;;;;9.88;3.58;;;;;;;15.10;nan;102114.56;6267623;22;20026;-52
2021/08/14 04:10:13;;;;;;;7.95;3.22;;;;;;;15.10;nan;102117.25;6267419;22;20052;-52
2021/08/14 04:12:38;;;;;;;9.98;2.97;;;;;;;15.11;nan;102107.28;6267347;22;20435;-49
2021/08/14 04:15:05;;;;;;;9.48;3.55;;;;;;;15.10;nan;102117.25;6267964;22;20004;-50
2021/08/14 04:17:32;;;;;;;10.95;3.15;;;;;;;15.10;nan;102111.03;6267373;22;20239;-51
2021/08/14 04:19:57;;;;;;;12.85;3.63;;;;;;;15.07;nan;102116.91;6268188;22;20309;-51
2021/08/14 04:22:23;;;;;;;8.52;3.45;;;;;;;15.10;nan;102124.53;6266741;22;20006;-49
2021/08/14 04:24:48;;;;;;;8.23;3.47;;;;;;;15.24;nan;102120.44;6267928;22;20082;-50
2021/08/14 04:27:14;;;;;;;12.75;3.72;;;;;;;15.32;nan;102111.13;6267651;22;20041;-49
2021/08/14 04:29:39;;;;;;;6.40;3.30;;;;;;;15.36;nan;102114.94;6267134;22;20015;-50
2021/08/14 04:32:05;;;;;;;8.02;3.67;;;;;;;15.31;nan;102118.41;6267602;22;20027;-49
2021/08/14 04:34:31;;;;;;;7.88;3.72;;;;;;;15.33;nan;102116.28;6267390;22;20355;-48
2021/08/14 04:36:56;;;;;;;8.85;3.58;;;;;;;15.31;nan;102118.41;6267208;22;20023;-52
2021/08/14 04:39:22;;;;;;;10.80;3.38;;;;;;;15.31;nan;102118.41;6266530;22;20369;-51
2021/08/14 04:41:48;;;;;;;13.10;4.55;;;;;;;15.33;nan;102115.44;6267695;22;20034;-50
2021/08/14 04:44:13;;;;;;;9.68;3.30;;;;;;;15.36;nan;102110.38;6267946;22;20000;-49
2021/08/14 04:46:39;;;;;;;9.43;3.70;;;;;;;15.46;nan;102114.31;6267386;22;20216;-49
2021/08/14 04:49:04;;;;;;;9.25;3.42;;;;;;;15.59;nan;102113.97;6267022;22;19999;-49
2021/08/14 04:51:30;;;;;;;10.75;3.60;;;;;;;15.67;nan;102105.47;6267919;22;20343;-50
2021/08/14 04:53:56;;;;;;;9.73;3.58;;;;;;;15.77;nan;102110.97;6269214;22;20046;-51
2021/08/14 04:56:22;;;;;;;14.52;3.47;;;;;;;15.80;nan;102112.38;6242029;22;20008;-49
2021/08/14 04:58:47;;;;;;;12.52;4.15;;;;;;;15.81;nan;102112.16;6270640;22;20032;-50
2021/08/14 05:01:13;;;;;;;9.43;3.65;;;;;;;15.94;nan;102116.34;6271427;22;20421;-49
2021/08/14 05:03:38;;;;;;;7.85;3.47;;;;;;;16.02;nan;102114.03;6270344;22;19999;-49
2021/08/14 05:06:07;;;;;;;10.77;3.35;;;;;;;16.21;nan;102116.44;6270734;22;20345;-49
2021/08/14 05:08:32;;;;;;;10.68;2.72;;;;;;;16.26;nan;102128.13;6269439;22;20167;-49
2021/08/14 05:10:58;;;;;;;10.52;3.20;;;;;;;16.41;nan;102118.53;6270829;22;20007;-51
2021/08/14 05:13:23;;;;;;;14.45;3.30;;;;;;;16.53;nan;102111.94;6270105;22;20007;-50
2021/08/14 05:15:49;;;;;;;10.40;3.80;;;;;;;16.56;nan;102114.13;6270946;22;20416;-49
2021/08/14 05:18:16;;;;;;;9.95;2.83;;;;;;;16.66;nan;102112.56;6269346;22;20010;-52
2021/08/14 05:20:42;;;;;;;9.70;3.47;;;;;;;16.84;nan;102114.94;6269785;22;20440;-50
2021/08/14 05:23:08;;;;;;;14.30;2.75;;;;;;;17.05;nan;102116.75;6269819;22;20000;-52
2021/08/14 05:25:34;;;;;;;7.82;2.70;;;;;;;17.18;nan;102104.69;6269984;22;20004;-50
2021/08/14 05:27:59;;;;;;;11.13;3.30;;;;;;;17.34;nan;102114.56;6270351;22;20011;-50
2021/08/14 05:30:25;;;;;;;13.85;2.92;;;;;;;17.49;nan;102122.78;6269528;22;20011;-52
2021/08/14 05:32:50;;;;;;;12.68;2.88;;;;;;;17.65;nan;102131.84;6270540;22;20007;-49
2021/08/14 05:35:16;;;;;;;13.82;3.00;;;;;;;17.86;nan;102132.00;6242713;22;20436;-52
2021/08/14 05:37:41;;;;;;;13.07;3.00;;;;;;;18.02;nan;102114.72;6269197;22;20087;-50
2021/08/14 05:40:07;;;;;;;20.67;3.55;;;;;;;17.99;nan;102112.53;6242348;22;20428;-52
2021/08/14 05:42:33;;;;;;;12.80;2.83;;;;;;;17.93;nan;102121.72;6265539;22;20059;-51
2021/08/14 05:44:58;;;;;;;14.75;2.85;;;;;;;17.75;nan;102126.50;6268486;22;20008;-52
2021/08/14 05:47:24;;;;;;;10.25;2.70;;;;;;;17.80;nan;102126.53;6267558;22;20004;-52
2021/08/14 05:49:50;;;;;;;8.73;3.00;;;;;;;17.88;nan;102119.78;6268465;22;20355;-49
2021/08/14 05:52:16;;;;;;;9.73;2.80;;;;;;;18.17;nan;102116.69;6268082;22;20037;-52
2021/08/14 05:54:42;;;;;;;11.98;3.20;;;;;;;18.10;nan;102127.75;6267358;22;20014;-49
2021/08/14 05:57:07;;;;;;;8.10;2.55;;;;;;;18.07;nan;102133.72;6268181;22;20093;-51
2021/08/14 05:59:33;;;;;;;7.90;2.55;;;;;;;18.34;nan;102139.81;6266077;22;20003;-51
2021/08/14 06:01:58;;;;;;;12.70;3.03;;;;;;;18.43;nan;102140.91;6267065;22;20057;-51
2021/08/14 06:04:24;;;;;;;9.02;2.47;;;;;;;18.38;nan;102138.19;6266732;22;20003;-49
2021/08/14 06:06:50;;;;;;;9.15;3.08;;;;;;;18.58;nan;102131.19;6267033;22;20008;-49
2021/08/14 06:09:15;;;;;;;13.70;3.00;;;;;;;18.79;nan;102129.34;6239285;22;20004;-51
2021/08/14 06:11:41;;;;;;;10.63;2.45;;;;;;;18.84;nan;102137.50;6266949;22;20171;-51
2021/08/14 06:14:07;;;;;;;9.60;3.13;;;;;;;19.00;nan;102144.56;6268248;22;20003;-49
2021/08/14 06:19:02;;;;;;;5.93;2.35;;;;;;;18.89;nan;102154.63;6295624;22;20019;-47
2021/08/14 06:21:27;;;;;;;12.25;2.60;;;;;;;18.87;nan;102139.69;6269875;22;20007;-48
2021/08/14 06:23:53;;;;;;;11.48;2.90;;;;;;;19.05;nan;102139.16;6298191;22;20331;-45
2021/08/14 06:26:18;;;;;;;10.25;2.90;;;;;;;19.21;nan;102137.22;6299121;22;20003;-46
2021/08/14 06:28:44;;;;;;;9.95;2.80;;;;;;;19.61;nan;102123.66;6298059;22;20007;-46
2021/08/14 06:31:09;;;;;;;10.50;2.78;;;;;;;20.40;nan;102127.41;6297574;22;20373;-48
2021/08/14 06:33:35;;;;;;;8.40;2.78;;;;;;;20.69;nan;102124.03;6297241;22;20017;-46
2021/08/14 06:36:00;;;;;;;8.77;2.60;;;;;;;20.30;nan;102127.50;6298690;22;20485;-45
2021/08/14 06:38:26;;;;;;;6.35;2.75;;;;;;;19.75;nan;102128.50;6296919;22;20304;-46
2021/08/14 06:40:51;;;;;;;10.25;2.80;;;;;;;19.98;nan;102124.34;6294777;22;20019;-45
2021/08/14 06:43:17;;;;;;;9.82;2.83;;;;;;;20.36;nan;102115.47;6298675;22;20007;-46
2021/08/14 06:45:42;;;;;;;8.38;2.20;;;;;;;20.41;nan;102114.66;6292636;22;20007;-45
2021/08/14 06:48:08;;;;;;;7.03;2.63;;;;;;;20.27;nan;102116.31;6294442;22;20347;-45
2021/08/14 06:50:34;;;;;;;6.40;2.55;;;;;;;20.02;nan;102128.16;6295696;22;20486;-46
2021/08/14 06:53:00;;;;;;;6.40;2.90;;;;;;;20.46;nan;102117.34;6294024;22;20010;-47
2021/08/14 06:55:25;;;;;;;7.38;2.72;;;;;;;20.75;nan;102120.16;6296813;22;20033;-46
2021/08/14 06:57:51;;;;;;;10.40;2.50;;;;;;;20.95;nan;102121.91;6295646;22;20003;-48
2021/08/14 07:00:17;;;;;;;9.95;2.88;;;;;;;20.75;nan;102120.97;6296685;22;20026;-45
2021/08/14 07:02:44;;;;;;;10.10;3.33;;;;;;;21.05;nan;102119.13;6296273;22;20498;-45
2021/08/14 07:05:10;;;;;;;7.68;3.15;;;;;;;21.30;nan;102127.09;6297109;22;20007;-46
2021/08/14 07:07:36;;;;;;;11.52;3.05;;;;;;;21.40;nan;102132.47;6294550;22;20017;-45
2021/08/14 07:10:06;;;;;;;8.52;2.97;;;;;;;20.93;nan;102132.28;6296313;22;20330;-47
2021/08/14 07:12:32;;;;;;;6.57;2.80;;;;;;;20.79;nan;102137.56;6296274;22;20014;-46
2021/08/14 07:14:59;;;;;;;10.15;3.22;;;;;;;20.34;nan;102139.44;6296115;22;20007;-46
2021/08/14 07:17:25;;;;;;;9.88;2.90;;;;;;;20.17;nan;102128.91;6296194;22;20007;-46
2021/08/14 07:19:50;;;;;;;9.15;2.97;;;;;;;20.43;nan;102132.31;6296871;22;20053;-46
2021/08/14 07:22:16;;;;;;;11.13;3.10;;;;;;;20.60;nan;102134.69;6294439;22;20007;-45
2021/08/14 07:24:41;;;;;;;11.75;2.88;;;;;;;20.62;nan;102140.66;6296883;22;20004;-45
2021/08/14 07:27:06;;;;;;;9.15;3.17;;;;;;;20.14;nan;102132.19;6295735;22;20003;-46
2021/08/14 07:29:32;;;;;;;10.35;3.05;;;;;;;20.68;nan;102127.84;6295371;22;20003;-45
2021/08/14 07:31:57;;;;;;;9.70;2.90;;;;;;;20.97;nan;102131.41;6294850;22;20701;-46
2021/08/14 07:34:23;;;;;;;8.40;2.75;;;;;;;21.01;nan;102137.16;6292850;22;20007;-47
2021/08/14 07:36:49;;;;;;;9.45;3.13;;;;;;;20.85;nan;102132.91;6296685;22;20198;-45
2021/08/14 07:39:15;;;;;;;9.90;3.45;;;;;;;21.11;nan;102137.03;6295961;22;20014;-48
2021/08/14 07:41:41;;;;;;;13.10;3.17;;;;;;;21.51;nan;102141.34;6295972;22;20339;-45
2021/08/14 07:44:06;;;;;;;8.90;3.22;;;;;;;21.61;nan;102134.97;6296697;22;20003;-46
2021/08/14 07:46:32;;;;;;;7.50;2.83;;;;;;;21.82;nan;102135.56;6296223;22;20003;-48
2021/08/14 07:48:58;;;;;;;9.68;2.85;;;;;;;21.77;nan;102136.44;6292515;22;20007;-46
2021/08/14 07:51:23;;;;;;;9.40;3.10;;;;;;;21.44;nan;102131.88;6298055;22;19995;-48
2021/08/14 07:53:49;;;;;;;9.25;2.92;;;;;;;21.36;nan;102141.47;6297984;22;20054;-48
2021/08/14 07:56:14;;;;;;;6.60;2.90;;;;;;;21.85;nan;102134.97;6298012;22;20048;-46
2021/08/14 07:58:40;;;;;;;10.82;3.10;;;;;;;21.90;nan;102143.09;6297755;22;20007;-45
2021/08/14 08:01:05;;;;;;;10.60;3.20;;;;;;;21.95;nan;102134.88;6297012;22;20434;-45
2021/08/14 08:03:31;;;;;;;9.80;2.83;;;;;;;22.07;nan;102137.22;6296759;22;20007;-45
2021/08/14 08:05:56;;;;;;;7.88;3.50;;;;;;;20.97;nan;102134.16;6298220;22;20009;-45
2021/08/14 08:08:22;;;;;;;13.32;3.72;;;;;;;21.20;nan;102137.25;6297056;22;20018;-46
2021/08/14 08:10:48;;;;;;;9.18;3.10;;;;;;;21.57;nan;102123.84;6298559;22;19995;-46
2021/08/14 08:13:14;;;;;;;15.05;3.53;;;;;;;22.02;nan;102125.22;6298143;22;20426;-49
2021/08/14 08:15:39;;;;;;;8.15;3.30;;;;;;;22.30;nan;102117.28;6296137;22;20046;-51
2021/08/14 08:18:05;;;;;;;9.27;3.00;;;;;;;21.95;nan;102132.16;6298022;22;20015;-48
2021/08/14 08:20:30;;;;;;;7.95;2.92;;;;;;;22.29;nan;102118.38;6296941;22;20003;-49
2021/08/14 08:22:56;;;;;;;10.77;2.70;;;;;;;22.57;nan;102124.78;6297829;22;20418;-47
2021/08/14 08:25:22;;;;;;;6.05;2.67;;;;;;;22.52;nan;102119.41;6298155;22;20167;-47
2021/08/14 08:27:49;;;;;;;8.05;3.17;;;;;;;22.60;nan;102119.53;6296284;22;20339;-46
2021/08/14 08:30:17;;;;;;;7.63;2.65;;;;;;;22.56;nan;102115.78;6297067;22;20003;-46
2021/08/14 08:32:44;;;;;;;9.27;2.92;;;;;;;22.80;nan;102114.88;6297946;22;20483;-46
2021/08/14 08:35:11;;;;;;;8.50;2.90;;;;;;;23.08;nan;102113.09;6297838;22;20312;-47
2021/08/14 08:37:36;;;;;;;9.48;2.97;;;;;;;23.10;nan;102111.69;6297070;22;19999;-46
2021/08/14 08:40:03;;;;;;;8.18;3.03;;;;;;;22.89;nan;102113.13;6297223;22;19995;-47
2021/08/14 08:42:29;;;;;;;8.80;2.85;;;;;;;23.15;nan;102108.84;6294718;22;19999;-46
2021/08/14 08:44:54;;;;;;;7.18;2.88;;;;;;;23.40;nan;102104.88;6266789;22;20003;-46
2021/08/14 08:47:21;;;;;;;8.25;2.83;;;;;;;23.63;nan;102100.34;6297707;22;20011;-45
2021/08/14 08:49:52;;;;;;;8.85;2.92;;;;;;;23.20;nan;102100.59;6272840;22;20061;-46
2021/08/14 08:52:20;;;;;;;13.45;3.63;;;;;;;23.17;nan;102097.66;6298010;22;20498;-45
2021/08/14 08:54:47;;;;;;;9.90;2.75;;;;;;;23.43;nan;102097.97;6298891;22;20097;-45
2021/08/14 08:57:12;;;;;;;9.38;2.75;;;;;;;23.31;nan;102079.31;6296924;22;20003;-46
2021/08/14 08:59:38;;;;;;;10.00;2.65;;;;;;;23.15;nan;102086.97;6299048;22;20236;-47
2021/08/14 09:02:04;;;;;;;8.63;2.70;;;;;;;23.56;nan;102090.91;6300555;22;20103;-45
2021/08/14 09:04:32;;;;;;;6.68;2.20;;;;;;;23.87;nan;102083.72;6272095;22;20030;-45
2021/08/14 09:07:00;;;;;;;9.13;2.60;;;;;;;24.48;nan;102085.16;6300011;22;20435;-45
2021/08/14 09:09:27;;;;;;;7.13;2.10;;;;;;;23.98;nan;102084.34;6298698;22;20007;-47
2021/08/14 09:12:00;;;;;;;6.30;2.92;;;;;;;23.91;nan;102081.22;6299045;22;20023;-47
2021/08/14 09:14:27;;;;;;;9.13;2.53;;;;;;;24.03;nan;102076.81;6299227;22;20392;-46
2021/08/14 09:17:07;;;;;;;7.70;2.60;;;;;;;23.67;nan;102076.75;6299618;22;20081;-46
2021/08/14 09:19:33;;;;;;;8.63;2.53;;;;;;;24.10;nan;102073.66;6299811;22;20003;-45
2021/08/14 09:22:11;;;;;;;12.18;3.15;;;;;;;23.98;nan;102074.19;6300214;22;20484;-48
2021/08/14 09:24:38;;;;;;;9.15;2.40;;;;;;;24.22;nan;102071.19;6299304;22;20014;-47
2021/08/14 09:27:04;;;;;;;8.13;2.10;;;;;;;24.32;nan;102064.72;6298933;22;20003;-47
2021/08/14 09:29:40;;;;;;;8.02;2.25;;;;;;;23.81;nan;102063.88;6297518;22;20011;-45
2021/08/14 09:32:09;;;;;;;7.03;2.38;;;;;;;23.77;nan;102065.59;6297451;22;20007;-45
2021/08/14 09:34:47;;;;;;;9.02;2.40;;;;;;;23.70;nan;102059.75;6297856;22;20064;-48
2021/08/14 09:37:15;;;;;;;7.68;2.22;;;;;;;23.38;nan;102060.59;6296863;22;20007;-47
2021/08/14 09:39:59;;;;;;;12.82;2.38;;;;;;;23.54;nan;102055.66;6299084;22;20007;-46
2021/08/14 09:42:25;;;;;;;7.75;2.00;;;;;;;24.05;nan;102043.66;6299159;22;20344;-45
2021/08/14 09:45:17;;;;;;;4.53;1.92;;;;;;;24.48;nan;102055.03;6299057;22;20027;-45
2021/08/14 09:47:44;;;;;;;6.55;2.03;;;;;;;24.57;nan;102057.81;6298562;22;20030;-46
2021/08/14 09:50:10;;;;;;;5.53;1.80;;;;;;;24.15;nan;102040.69;6299047;22;20454;-46
2021/08/14 09:52:36;;;;;;;9.15;2.47;;;;;;;24.45;nan;102052.09;6299131;22;20011;-46
2021/08/14 09:55:02;;;;;;;7.45;2.30;;;;;;;24.40;nan;102048.34;6299436;22;19999;-46
2021/08/14 09:57:27;;;;;;;5.90;2.55;;;;;;;23.48;nan;102043.19;6270768;22;20003;-46
2021/08/14 09:59:53;;;;;;;5.05;2.40;;;;;;;23.66;nan;102036.00;6298525;22;20403;-48
2021/08/14 10:02:28;;;;;;;5.80;2.33;;;;;;;23.49;nan;102047.53;6298896;22;20090;-46
2021/08/14 10:04:56;;;;;;;6.10;2.45;;;;;;;24.36;nan;102043.81;6298286;22;20245;-46
2021/08/14 10:07:22;;;;;;;5.40;1.90;;;;;;;24.77;nan;102040.06;6289841;22;20063;-46
2021/08/14 10:09:49;;;;;;;3.78;2.10;;;;;;;24.80;nan;102037.53;6297498;22;20007;-46
2021/08/14 10:12:17;;;;;;;7.80;2.42;;;;;;;25.06;nan;102047.84;6270540;22;20007;-46
2021/08/14 10:14:44;;;;;;;6.63;2.15;;;;;;;24.98;nan;102046.66;6297890;22;20011;-47
2021/08/14 10:17:11;;;;;;;7.22;2.28;;;;;;;24.18;nan;102048.28;6297804;22;20014;-46
2021/08/14 10:19:37;;;;;;;9.70;4.65;;;;;;;24.18;nan;102045.53;6297362;22;19999;-47
2021/08/14 10:22:05;;;;;;;8.93;3.33;;;;;;;24.39;nan;102040.44;6298313;22;20056;-46
2021/08/14 10:24:40;;;;;;;8.98;3.80;;;;;;;24.57;nan;102031.22;6266455;22;20011;-48
2021/08/14 10:27:10;;;;;;;65.15;35.85;;;;;;;24.68;nan;102031.78;6294358;22;20445;-46
2021/08/14 10:29:58;;;;;;;9.13;3.17;;;;;;;24.65;nan;102024.22;6296879;22;20069;-46
2021/08/14 10:32:30;;;;;;;16.15;6.97;;;;;;;25.17;nan;102019.84;6297029;22;20015;-45
2021/08/14 10:35:17;;;;;;;5.47;1.90;;;;;;;25.25;nan;102026.50;6296964;22;20071;-44
2021/08/14 10:37:45;;;;;;;8.23;3.15;;;;;;;25.44;nan;102018.81;6297147;22;20007;-45
2021/08/14 10:40:12;;;;;;;5.40;2.22;;;;;;;25.68;nan;102017.63;6297123;22;20078;-44
2021/08/14 10:42:52;;;;;;;4.30;1.67;;;;;;;25.71;nan;102011.50;6296328;22;20074;-44
2021/08/14 10:45:33;;;;;;;5.43;1.80;;;;;;;25.67;nan;102000.28;6294885;22;20504;-48
2021/08/14 10:48:03;;;;;;;8.13;2.20;;;;;;;25.38;nan;102008.31;6296664;22;20003;-48
2021/08/14 10:50:32;;;;;;;7.28;2.00;;;;;;;25.49;nan;102004.13;6295204;22;20368;-47
2021/08/14 10:53:15;;;;;;;5.28;2.03;;;;;;;25.69;nan;102000.84;6296790;22;20015;-50
2021/08/14 10:55:55;;;;;;;6.22;1.70;;;;;;;25.70;nan;102002.47;6296954;22;20003;-50
2021/08/14 10:58:36;;;;;;;5.40;2.00;;;;;;;24.59;nan;102009.81;6294178;22;20760;-49
2021/08/14 11:01:02;;;;;;;4.95;2.00;;;;;;;24.81;nan;101995.28;6269018;22;20003;-48
2021/08/14 11:03:35;;;;;;;6.00;2.22;;;;;;;24.81;nan;101994.47;6295902;22;20584;-50
2021/08/14 11:06:29;;;;;;;7.23;2.30;;;;;;;24.67;nan;101991.81;6296636;22;20454;-49
2021/08/14 11:09:16;;;;;;;7.00;2.33;;;;;;;24.39;nan;101988.38;6293759;22;20006;-47
2021/08/14 11:11:44;;;;;;;5.57;2.10;;;;;;;25.40;nan;101984.91;6298471;22;20003;-50
2021/08/14 11:14:11;;;;;;;4.95;2.08;;;;;;;25.35;nan;101993.28;6268813;22;20007;-47
2021/08/14 11:16:59;;;;;;;4.78;2.15;;;;;;;25.50;nan;101992.84;6294944;22;20007;-49
2021/08/14 11:19:51;;;;;;;4.55;1.73;;;;;;;25.39;nan;101986.03;6294884;22;20014;-48
2021/08/14 11:22:31;;;;;;;6.03;2.13;;;;;;;24.88;nan;101983.88;6294630;22;20011;-49
2021/08/14 11:24:59;;;;;;;6.72;2.28;;;;;;;24.46;nan;101988.78;6297319;22;20709;-48
2021/08/14 11:27:32;;;;;;;7.75;2.00;;;;;;;24.82;nan;101983.19;6297600;22;20046;-48
2021/08/14 11:30:09;;;;;;;5.38;1.80;;;;;;;24.56;nan;101972.06;6294288;22;19999;-50
2021/08/14 11:32:36;;;;;;;6.50;2.13;;;;;;;24.65;nan;101966.66;6295025;22;20004;-48
2021/08/14 11:35:05;;;;;;;5.03;1.70;;;;;;;24.41;nan;101964.22;6297289;22;20497;-48
2021/08/14 11:37:30;;;;;;;5.78;2.13;;;;;;;25.29;nan;101961.63;6296330;22;20448;-48
2021/08/14 11:40:06;;;;;;;3.20;1.98;;;;;;;25.69;nan;101953.38;6297656;22;20034;-48
2021/08/14 11:42:32;;;;;;;5.00;1.70;;;;;;;26.38;nan;101942.38;6297393;22;20003;-48